sensor_id;sensor_type;location;lat;lon;timestamp;temperature;humidity
21762;DHT22;11203;50.870;20.682;2022-11-15T00:02:13;5.50;1.00
21762;DHT22;11203;50.870;20.682;2022-11-15T00:04:39;5.50;1.00
21762;DHT22;11203;50.870;20.682;2022-11-15T00:07:05;5.50;1.00
21762;DHT22;11203;50.870;20.682;2022-11-15T00:09:31;5.50;1.00
21762;DHT22;11203;50.870;20.682;2022-11-15T00:11:57;5.60;1.00
21762;DHT22;11203;50.870;20.682;2022-11-15T00:14:23;5.60;1.00
21762;DHT22;11203;50.870;20.682;2022-11-15T00:16:49;5.60;1.00
21762;DHT22;11203;50.870;20.682;2022-11-15T00:19:15;5.60;1.00
21762;DHT22;11203;50.870;20.682;2022-11-15T00:21:41;5.60;1.00
21762;DHT22;11203;50.870;20.682;2022-11-15T00:24:08;5.60;1.00
21762;DHT22;11203;50.870;20.682;2022-11-15T00:26:34;5.60;1.00
21762;DHT22;11203;50.870;20.682;2022-11-15T00:29:00;5.50;1.00
21762;DHT22;11203;50.870;20.682;2022-11-15T00:31:26;5.50;1.00
21762;DHT22;11203;50.870;20.682;2022-11-15T00:33:52;5.50;1.00
21762;DHT22;11203;50.870;20.682;2022-11-15T00:36:18;5.60;1.00
21762;DHT22;11203;50.870;20.682;2022-11-15T00:38:44;5.60;1.00
21762;DHT22;11203;50.870;20.682;2022-11-15T00:41:10;5.60;1.00
21762;DHT22;11203;50.870;20.682;2022-11-15T00:43:36;5.60;1.00
21762;DHT22;11203;50.870;20.682;2022-11-15T00:46:03;5.60;1.00
21762;DHT22;11203;50.870;20.682;2022-11-15T00:48:29;5.50;1.00
21762;DHT22;11203;50.870;20.682;2022-11-15T00:50:55;5.50;1.00
21762;DHT22;11203;50.870;20.682;2022-11-15T00:53:22;5.40;1.00
21762;DHT22;11203;50.870;20.682;2022-11-15T00:55:47;5.50;1.00
21762;DHT22;11203;50.870;20.682;2022-11-15T00:58:14;5.50;1.00
21762;DHT22;11203;50.870;20.682;2022-11-15T01:00:40;5.50;1.00
21762;DHT22;11203;50.870;20.682;2022-11-15T01:03:06;5.40;1.00
21762;DHT22;11203;50.870;20.682;2022-11-15T01:05:32;5.40;1.00
21762;DHT22;11203;50.870;20.682;2022-11-15T01:07:58;5.40;1.00
21762;DHT22;11203;50.870;20.682;2022-11-15T01:10:24;5.40;1.00
21762;DHT22;11203;50.870;20.682;2022-11-15T01:12:51;5.40;1.00
21762;DHT22;11203;50.870;20.682;2022-11-15T01:15:17;5.40;1.00
21762;DHT22;11203;50.870;20.682;2022-11-15T01:17:43;5.40;1.00
21762;DHT22;11203;50.870;20.682;2022-11-15T01:20:10;5.40;1.00
21762;DHT22;11203;50.870;20.682;2022-11-15T01:22:36;5.40;1.00
21762;DHT22;11203;50.870;20.682;2022-11-15T01:25:02;5.30;1.00
21762;DHT22;11203;50.870;20.682;2022-11-15T01:27:29;5.30;1.00
21762;DHT22;11203;50.870;20.682;2022-11-15T01:29:54;5.30;1.00
21762;DHT22;11203;50.870;20.682;2022-11-15T01:32:21;5.30;1.00
21762;DHT22;11203;50.870;20.682;2022-11-15T01:34:47;5.20;1.00
21762;DHT22;11203;50.870;20.682;2022-11-15T01:37:13;5.20;1.00
21762;DHT22;11203;50.870;20.682;2022-11-15T01:39:39;5.20;1.00
21762;DHT22;11203;50.870;20.682;2022-11-15T01:42:12;5.20;1.00
21762;DHT22;11203;50.870;20.682;2022-11-15T01:47:13;5.20;1.00
21762;DHT22;11203;50.870;20.682;2022-11-15T01:49:56;5.20;1.00
21762;DHT22;11203;50.870;20.682;2022-11-15T01:52:27;5.30;1.00
21762;DHT22;11203;50.870;20.682;2022-11-15T01:55:13;5.20;1.00
21762;DHT22;11203;50.870;20.682;2022-11-15T01:57:43;5.20;1.00
21762;DHT22;11203;50.870;20.682;2022-11-15T02:00:11;5.10;1.00
21762;DHT22;11203;50.870;20.682;2022-11-15T02:02:38;5.10;1.00
21762;DHT22;11203;50.870;20.682;2022-11-15T02:05:05;5.10;1.00
21762;DHT22;11203;50.870;20.682;2022-11-15T02:07:33;5.10;1.00
21762;DHT22;11203;50.870;20.682;2022-11-15T02:10:04;5.10;1.00
21762;DHT22;11203;50.870;20.682;2022-11-15T02:12:34;5.10;1.00
21762;DHT22;11203;50.870;20.682;2022-11-15T02:15:00;5.10;1.00
21762;DHT22;11203;50.870;20.682;2022-11-15T02:29:46;5.00;1.00
21762;DHT22;11203;50.870;20.682;2022-11-15T02:33:03;5.00;1.00
21762;DHT22;11203;50.870;20.682;2022-11-15T02:35:46;5.00;1.00
21762;DHT22;11203;50.870;20.682;2022-11-15T02:41:23;5.00;1.00
21762;DHT22;11203;50.870;20.682;2022-11-15T02:44:20;5.00;1.00
21762;DHT22;11203;50.870;20.682;2022-11-15T02:46:57;5.00;1.00
21762;DHT22;11203;50.870;20.682;2022-11-15T02:49:49;5.00;1.00
21762;DHT22;11203;50.870;20.682;2022-11-15T02:52:22;5.10;1.00
21762;DHT22;11203;50.870;20.682;2022-11-15T02:54:58;5.10;1.00
21762;DHT22;11203;50.870;20.682;2022-11-15T02:57:45;5.10;1.00
21762;DHT22;11203;50.870;20.682;2022-11-15T03:00:21;5.10;1.00
21762;DHT22;11203;50.870;20.682;2022-11-15T03:02:58;5.10;1.00
21762;DHT22;11203;50.870;20.682;2022-11-15T03:11:17;5.10;1.00
21762;DHT22;11203;50.870;20.682;2022-11-15T03:13:58;5.10;1.00
21762;DHT22;11203;50.870;20.682;2022-11-15T03:16:37;5.10;1.00
21762;DHT22;11203;50.870;20.682;2022-11-15T03:21:40;5.00;1.00
21762;DHT22;11203;50.870;20.682;2022-11-15T03:24:08;4.90;1.00
21762;DHT22;11203;50.870;20.682;2022-11-15T03:26:36;4.90;1.00
21762;DHT22;11203;50.870;20.682;2022-11-15T03:29:26;4.90;1.00
21762;DHT22;11203;50.870;20.682;2022-11-15T03:32:00;4.80;1.00
21762;DHT22;11203;50.870;20.682;2022-11-15T03:34:31;4.80;1.00
21762;DHT22;11203;50.870;20.682;2022-11-15T03:36:58;4.80;1.00
21762;DHT22;11203;50.870;20.682;2022-11-15T03:39:25;4.90;1.00
21762;DHT22;11203;50.870;20.682;2022-11-15T03:47:41;4.80;1.00
21762;DHT22;11203;50.870;20.682;2022-11-15T03:50:14;4.70;1.00
21762;DHT22;11203;50.870;20.682;2022-11-15T03:52:45;4.70;1.00
21762;DHT22;11203;50.870;20.682;2022-11-15T03:55:20;4.70;1.00
21762;DHT22;11203;50.870;20.682;2022-11-15T03:57:50;4.70;1.00
21762;DHT22;11203;50.870;20.682;2022-11-15T04:00:18;4.60;1.00
21762;DHT22;11203;50.870;20.682;2022-11-15T04:02:44;4.60;1.00
21762;DHT22;11203;50.870;20.682;2022-11-15T04:05:10;4.60;1.00
21762;DHT22;11203;50.870;20.682;2022-11-15T04:07:36;4.70;1.00
21762;DHT22;11203;50.870;20.682;2022-11-15T04:10:03;4.70;1.00
21762;DHT22;11203;50.870;20.682;2022-11-15T04:12:36;4.70;1.00
21762;DHT22;11203;50.870;20.682;2022-11-15T04:15:13;4.60;1.00
21762;DHT22;11203;50.870;20.682;2022-11-15T04:17:47;4.60;1.00
21762;DHT22;11203;50.870;20.682;2022-11-15T04:20:16;4.80;1.00
21762;DHT22;11203;50.870;20.682;2022-11-15T04:23:03;4.80;1.00
21762;DHT22;11203;50.870;20.682;2022-11-15T04:25:51;4.60;1.00
21762;DHT22;11203;50.870;20.682;2022-11-15T04:28:19;4.70;1.00
21762;DHT22;11203;50.870;20.682;2022-11-15T04:30:45;4.60;1.00
21762;DHT22;11203;50.870;20.682;2022-11-15T04:33:11;4.70;1.00
21762;DHT22;11203;50.870;20.682;2022-11-15T04:35:38;4.70;1.00
21762;DHT22;11203;50.870;20.682;2022-11-15T04:38:06;4.70;1.00
21762;DHT22;11203;50.870;20.682;2022-11-15T04:40:34;4.70;1.00
21762;DHT22;11203;50.870;20.682;2022-11-15T04:43:01;4.60;1.00
21762;DHT22;11203;50.870;20.682;2022-11-15T04:45:27;4.60;1.00
21762;DHT22;11203;50.870;20.682;2022-11-15T04:47:53;4.60;1.00
21762;DHT22;11203;50.870;20.682;2022-11-15T04:50:19;4.60;1.00
21762;DHT22;11203;50.870;20.682;2022-11-15T04:52:53;4.60;1.00
21762;DHT22;11203;50.870;20.682;2022-11-15T04:55:20;4.70;1.00
21762;DHT22;11203;50.870;20.682;2022-11-15T04:57:46;4.70;1.00
21762;DHT22;11203;50.870;20.682;2022-11-15T05:00:15;4.70;1.00
21762;DHT22;11203;50.870;20.682;2022-11-15T05:02:42;4.80;1.00
21762;DHT22;11203;50.870;20.682;2022-11-15T05:05:26;4.80;1.00
21762;DHT22;11203;50.870;20.682;2022-11-15T05:07:52;4.80;1.00
21762;DHT22;11203;50.870;20.682;2022-11-15T05:10:19;4.80;1.00
21762;DHT22;11203;50.870;20.682;2022-11-15T05:12:46;4.70;1.00
21762;DHT22;11203;50.870;20.682;2022-11-15T05:15:13;4.70;1.00
21762;DHT22;11203;50.870;20.682;2022-11-15T05:17:39;4.60;1.00
21762;DHT22;11203;50.870;20.682;2022-11-15T05:20:05;4.50;1.00
21762;DHT22;11203;50.870;20.682;2022-11-15T05:22:32;4.40;1.00
21762;DHT22;11203;50.870;20.682;2022-11-15T05:24:58;4.50;1.00
21762;DHT22;11203;50.870;20.682;2022-11-15T05:27:24;4.40;1.00
21762;DHT22;11203;50.870;20.682;2022-11-15T05:29:50;4.50;1.00
21762;DHT22;11203;50.870;20.682;2022-11-15T05:32:16;4.40;1.00
21762;DHT22;11203;50.870;20.682;2022-11-15T05:34:43;4.40;1.00
21762;DHT22;11203;50.870;20.682;2022-11-15T05:37:10;4.40;1.00
21762;DHT22;11203;50.870;20.682;2022-11-15T05:39:36;4.50;1.00
21762;DHT22;11203;50.870;20.682;2022-11-15T05:42:08;4.40;1.00
21762;DHT22;11203;50.870;20.682;2022-11-15T05:44:37;4.40;1.00
21762;DHT22;11203;50.870;20.682;2022-11-15T05:47:07;4.40;1.00
21762;DHT22;11203;50.870;20.682;2022-11-15T05:49:36;4.50;1.00
21762;DHT22;11203;50.870;20.682;2022-11-15T05:52:09;4.40;1.00
21762;DHT22;11203;50.870;20.682;2022-11-15T05:54:36;4.30;1.00
21762;DHT22;11203;50.870;20.682;2022-11-15T05:57:04;4.30;1.00
21762;DHT22;11203;50.870;20.682;2022-11-15T05:59:31;4.30;1.00
21762;DHT22;11203;50.870;20.682;2022-11-15T06:01:58;4.30;1.00
21762;DHT22;11203;50.870;20.682;2022-11-15T06:04:25;4.70;1.00
21762;DHT22;11203;50.870;20.682;2022-11-15T06:06:51;4.90;1.00
21762;DHT22;11203;50.870;20.682;2022-11-15T06:09:17;4.70;1.00
21762;DHT22;11203;50.870;20.682;2022-11-15T06:11:43;4.60;1.00
21762;DHT22;11203;50.870;20.682;2022-11-15T06:14:09;4.60;1.00
21762;DHT22;11203;50.870;20.682;2022-11-15T06:16:35;4.60;1.00
21762;DHT22;11203;50.870;20.682;2022-11-15T06:19:01;4.70;1.00
21762;DHT22;11203;50.870;20.682;2022-11-15T06:21:27;4.70;1.00
21762;DHT22;11203;50.870;20.682;2022-11-15T06:23:55;4.60;1.00
21762;DHT22;11203;50.870;20.682;2022-11-15T06:26:21;4.70;1.00
21762;DHT22;11203;50.870;20.682;2022-11-15T06:28:47;4.60;1.00
21762;DHT22;11203;50.870;20.682;2022-11-15T06:31:13;4.60;1.00
21762;DHT22;11203;50.870;20.682;2022-11-15T06:33:40;4.60;1.00
21762;DHT22;11203;50.870;20.682;2022-11-15T06:36:09;4.60;1.00
21762;DHT22;11203;50.870;20.682;2022-11-15T06:38:39;4.60;1.00
21762;DHT22;11203;50.870;20.682;2022-11-15T06:41:10;4.70;1.00
21762;DHT22;11203;50.870;20.682;2022-11-15T06:43:37;4.60;1.00
21762;DHT22;11203;50.870;20.682;2022-11-15T06:46:04;4.60;1.00
21762;DHT22;11203;50.870;20.682;2022-11-15T06:48:32;4.70;1.00
21762;DHT22;11203;50.870;20.682;2022-11-15T06:51:00;4.60;1.00
21762;DHT22;11203;50.870;20.682;2022-11-15T06:53:28;4.60;1.00
21762;DHT22;11203;50.870;20.682;2022-11-15T06:56:07;4.50;1.00
21762;DHT22;11203;50.870;20.682;2022-11-15T06:58:35;4.50;1.00
21762;DHT22;11203;50.870;20.682;2022-11-15T07:01:10;4.60;1.00
21762;DHT22;11203;50.870;20.682;2022-11-15T07:03:39;4.60;1.00
21762;DHT22;11203;50.870;20.682;2022-11-15T07:06:07;4.70;1.00
21762;DHT22;11203;50.870;20.682;2022-11-15T07:08:34;4.70;1.00
21762;DHT22;11203;50.870;20.682;2022-11-15T07:11:02;4.70;1.00
21762;DHT22;11203;50.870;20.682;2022-11-15T07:13:32;4.70;1.00
21762;DHT22;11203;50.870;20.682;2022-11-15T07:16:05;4.70;1.00
21762;DHT22;11203;50.870;20.682;2022-11-15T07:18:39;4.80;1.00
21762;DHT22;11203;50.870;20.682;2022-11-15T07:21:08;4.70;1.00
21762;DHT22;11203;50.870;20.682;2022-11-15T07:23:37;4.80;1.00
21762;DHT22;11203;50.870;20.682;2022-11-15T07:26:04;4.80;1.00
21762;DHT22;11203;50.870;20.682;2022-11-15T07:28:31;4.80;1.00
21762;DHT22;11203;50.870;20.682;2022-11-15T07:30:57;4.80;1.00
21762;DHT22;11203;50.870;20.682;2022-11-15T07:33:23;4.90;1.00
21762;DHT22;11203;50.870;20.682;2022-11-15T07:35:49;4.90;1.00
21762;DHT22;11203;50.870;20.682;2022-11-15T07:38:17;4.90;1.00
21762;DHT22;11203;50.870;20.682;2022-11-15T07:40:47;4.90;1.00
21762;DHT22;11203;50.870;20.682;2022-11-15T07:43:21;5.00;1.00
21762;DHT22;11203;50.870;20.682;2022-11-15T07:45:47;5.10;1.00
21762;DHT22;11203;50.870;20.682;2022-11-15T07:48:13;5.00;1.00
21762;DHT22;11203;50.870;20.682;2022-11-15T07:50:42;5.00;1.00
21762;DHT22;11203;50.870;20.682;2022-11-15T07:53:09;5.00;1.00
21762;DHT22;11203;50.870;20.682;2022-11-15T07:55:36;5.00;1.00
21762;DHT22;11203;50.870;20.682;2022-11-15T07:58:05;5.00;1.00
21762;DHT22;11203;50.870;20.682;2022-11-15T08:00:33;5.10;1.00
21762;DHT22;11203;50.870;20.682;2022-11-15T08:03:04;4.90;1.00
21762;DHT22;11203;50.870;20.682;2022-11-15T08:05:32;5.00;1.00
21762;DHT22;11203;50.870;20.682;2022-11-15T08:07:59;5.10;1.00
21762;DHT22;11203;50.870;20.682;2022-11-15T08:10:27;5.10;1.00
21762;DHT22;11203;50.870;20.682;2022-11-15T08:13:02;5.20;1.00
21762;DHT22;11203;50.870;20.682;2022-11-15T08:15:29;5.20;1.00
21762;DHT22;11203;50.870;20.682;2022-11-15T08:17:57;5.30;1.00
21762;DHT22;11203;50.870;20.682;2022-11-15T08:20:25;5.20;1.00
21762;DHT22;11203;50.870;20.682;2022-11-15T08:22:59;5.20;1.00
21762;DHT22;11203;50.870;20.682;2022-11-15T08:25:30;5.30;1.00
21762;DHT22;11203;50.870;20.682;2022-11-15T08:28:00;5.20;1.00
21762;DHT22;11203;50.870;20.682;2022-11-15T08:30:28;5.40;1.00
21762;DHT22;11203;50.870;20.682;2022-11-15T08:32:57;5.30;1.00
21762;DHT22;11203;50.870;20.682;2022-11-15T08:35:24;5.40;1.00
21762;DHT22;11203;50.870;20.682;2022-11-15T08:37:51;5.40;1.00
21762;DHT22;11203;50.870;20.682;2022-11-15T08:40:19;5.50;1.00
21762;DHT22;11203;50.870;20.682;2022-11-15T08:42:48;5.30;1.00
21762;DHT22;11203;50.870;20.682;2022-11-15T08:45:15;5.50;1.00
21762;DHT22;11203;50.870;20.682;2022-11-15T08:47:41;5.40;1.00
21762;DHT22;11203;50.870;20.682;2022-11-15T08:50:07;5.50;1.00
21762;DHT22;11203;50.870;20.682;2022-11-15T08:52:34;5.70;1.00
21762;DHT22;11203;50.870;20.682;2022-11-15T08:55:00;5.60;1.00
21762;DHT22;11203;50.870;20.682;2022-11-15T08:57:28;5.60;1.00
21762;DHT22;11203;50.870;20.682;2022-11-15T08:59:56;5.70;1.00
21762;DHT22;11203;50.870;20.682;2022-11-15T09:02:22;5.60;1.00
21762;DHT22;11203;50.870;20.682;2022-11-15T09:04:48;5.60;99.90
21762;DHT22;11203;50.870;20.682;2022-11-15T09:07:14;5.70;1.00
21762;DHT22;11203;50.870;20.682;2022-11-15T09:09:40;5.80;1.00
21762;DHT22;11203;50.870;20.682;2022-11-15T09:12:07;5.80;99.90
21762;DHT22;11203;50.870;20.682;2022-11-15T09:14:34;5.70;1.00
21762;DHT22;11203;50.870;20.682;2022-11-15T09:17:01;5.60;99.90
21762;DHT22;11203;50.870;20.682;2022-11-15T09:19:27;5.60;1.00
21762;DHT22;11203;50.870;20.682;2022-11-15T09:21:53;5.80;1.00
21762;DHT22;11203;50.870;20.682;2022-11-15T09:24:20;6.00;1.00
21762;DHT22;11203;50.870;20.682;2022-11-15T09:26:46;6.00;99.90
21762;DHT22;11203;50.870;20.682;2022-11-15T09:29:15;6.00;99.90
21762;DHT22;11203;50.870;20.682;2022-11-15T09:31:41;6.10;99.90
21762;DHT22;11203;50.870;20.682;2022-11-15T09:34:09;6.10;99.90
21762;DHT22;11203;50.870;20.682;2022-11-15T09:36:35;6.20;1.00
21762;DHT22;11203;50.870;20.682;2022-11-15T09:39:01;6.20;99.90
21762;DHT22;11203;50.870;20.682;2022-11-15T09:41:50;6.40;99.90
21762;DHT22;11203;50.870;20.682;2022-11-15T09:44:51;6.40;99.90
21762;DHT22;11203;50.870;20.682;2022-11-15T09:50:54;6.40;99.90
21762;DHT22;11203;50.870;20.682;2022-11-15T09:53:38;6.40;99.90
21762;DHT22;11203;50.870;20.682;2022-11-15T09:56:19;6.20;99.90
21762;DHT22;11203;50.870;20.682;2022-11-15T10:04:34;6.10;99.90
21762;DHT22;11203;50.870;20.682;2022-11-15T10:07:14;6.30;99.90
21762;DHT22;11203;50.870;20.682;2022-11-15T10:09:57;6.50;99.90
21762;DHT22;11203;50.870;20.682;2022-11-15T10:12:29;6.50;99.90
21762;DHT22;11203;50.870;20.682;2022-11-15T10:15:05;6.60;99.90
21762;DHT22;11203;50.870;20.682;2022-11-15T10:20:28;6.70;99.90
21762;DHT22;11203;50.870;20.682;2022-11-15T10:22:59;6.80;99.90
21762;DHT22;11203;50.870;20.682;2022-11-15T10:25:31;6.80;99.90
21762;DHT22;11203;50.870;20.682;2022-11-15T10:28:25;6.60;99.90
21762;DHT22;11203;50.870;20.682;2022-11-15T10:31:00;6.70;99.90
21762;DHT22;11203;50.870;20.682;2022-11-15T10:38:52;6.90;99.90
21762;DHT22;11203;50.870;20.682;2022-11-15T10:41:31;6.90;99.90
21762;DHT22;11203;50.870;20.682;2022-11-15T10:46:37;7.00;99.90
21762;DHT22;11203;50.870;20.682;2022-11-15T10:49:19;7.10;99.90
21762;DHT22;11203;50.870;20.682;2022-11-15T10:54:50;7.10;99.90
21762;DHT22;11203;50.870;20.682;2022-11-15T10:57:25;7.10;99.90
21762;DHT22;11203;50.870;20.682;2022-11-15T11:03:06;7.10;99.90
21762;DHT22;11203;50.870;20.682;2022-11-15T11:05:48;7.10;99.90
21762;DHT22;11203;50.870;20.682;2022-11-15T11:10:55;7.20;99.90
21762;DHT22;11203;50.870;20.682;2022-11-15T11:13:24;7.30;99.90
21762;DHT22;11203;50.870;20.682;2022-11-15T11:18:53;7.50;99.90
21762;DHT22;11203;50.870;20.682;2022-11-15T11:33:11;7.80;99.90
21762;DHT22;11203;50.870;20.682;2022-11-15T11:44:27;8.00;99.90
21762;DHT22;11203;50.870;20.682;2022-11-15T11:47:01;8.10;99.90
21762;DHT22;11203;50.870;20.682;2022-11-15T11:50:00;8.20;99.90
21762;DHT22;11203;50.870;20.682;2022-11-15T11:52:56;8.10;99.90
21762;DHT22;11203;50.870;20.682;2022-11-15T11:55:49;8.20;99.90
21762;DHT22;11203;50.870;20.682;2022-11-15T12:01:21;8.20;99.90
21762;DHT22;11203;50.870;20.682;2022-11-15T12:03:58;8.30;99.90
21762;DHT22;11203;50.870;20.682;2022-11-15T12:06:35;8.30;99.90
21762;DHT22;11203;50.870;20.682;2022-11-15T12:15:55;8.50;99.90
21762;DHT22;11203;50.870;20.682;2022-11-15T12:18:23;8.40;99.90
21762;DHT22;11203;50.870;20.682;2022-11-15T12:20:56;8.50;99.90
21762;DHT22;11203;50.870;20.682;2022-11-15T12:23:39;8.60;99.90
21762;DHT22;11203;50.870;20.682;2022-11-15T12:26:26;8.50;99.90
21762;DHT22;11203;50.870;20.682;2022-11-15T12:28:58;8.60;99.90
21762;DHT22;11203;50.870;20.682;2022-11-15T12:31:39;8.60;99.90
21762;DHT22;11203;50.870;20.682;2022-11-15T12:36:50;8.70;99.90
21762;DHT22;11203;50.870;20.682;2022-11-15T12:39:17;8.70;99.90
21762;DHT22;11203;50.870;20.682;2022-11-15T12:46:58;8.80;99.90
21762;DHT22;11203;50.870;20.682;2022-11-15T12:59:51;9.00;99.90
21762;DHT22;11203;50.870;20.682;2022-11-15T13:02:33;9.00;99.90
21762;DHT22;11203;50.870;20.682;2022-11-15T13:08:01;9.20;99.90
21762;DHT22;11203;50.870;20.682;2022-11-15T13:10:31;9.20;99.90
21762;DHT22;11203;50.870;20.682;2022-11-15T13:13:07;9.20;99.90
21762;DHT22;11203;50.870;20.682;2022-11-15T13:15:35;9.20;99.90
21762;DHT22;11203;50.870;20.682;2022-11-15T13:18:35;9.20;99.90
21762;DHT22;11203;50.870;20.682;2022-11-15T13:21:16;9.20;99.90
21762;DHT22;11203;50.870;20.682;2022-11-15T13:24:04;9.30;99.90
21762;DHT22;11203;50.870;20.682;2022-11-15T13:26:31;9.30;99.90
21762;DHT22;11203;50.870;20.682;2022-11-15T13:28:57;9.30;99.90
21762;DHT22;11203;50.870;20.682;2022-11-15T13:31:25;9.30;99.90
21762;DHT22;11203;50.870;20.682;2022-11-15T13:34:25;9.30;99.90
21762;DHT22;11203;50.870;20.682;2022-11-15T13:36:53;9.20;99.90
21762;DHT22;11203;50.870;20.682;2022-11-15T13:39:31;9.30;99.90
21762;DHT22;11203;50.870;20.682;2022-11-15T13:41:59;9.20;99.90
21762;DHT22;11203;50.870;20.682;2022-11-15T13:44:31;9.30;99.90
21762;DHT22;11203;50.870;20.682;2022-11-15T13:47:13;9.30;99.90
21762;DHT22;11203;50.870;20.682;2022-11-15T13:49:40;9.30;99.90
21762;DHT22;11203;50.870;20.682;2022-11-15T13:52:10;9.20;99.90
21762;DHT22;11203;50.870;20.682;2022-11-15T13:54:44;9.20;99.90
21762;DHT22;11203;50.870;20.682;2022-11-15T13:57:16;9.10;99.90
21762;DHT22;11203;50.870;20.682;2022-11-15T14:02:19;9.00;99.90
21762;DHT22;11203;50.870;20.682;2022-11-15T14:04:57;9.00;99.90
21762;DHT22;11203;50.870;20.682;2022-11-15T14:07:29;8.90;99.90
21762;DHT22;11203;50.870;20.682;2022-11-15T14:09:56;8.90;99.90
21762;DHT22;11203;50.870;20.682;2022-11-15T14:12:32;8.90;99.90
21762;DHT22;11203;50.870;20.682;2022-11-15T14:17:59;8.70;99.90
21762;DHT22;11203;50.870;20.682;2022-11-15T14:23:44;8.70;99.90
21762;DHT22;11203;50.870;20.682;2022-11-15T14:25:59;8.70;99.90
21762;DHT22;11203;50.870;20.682;2022-11-15T14:30:55;8.60;99.90
21762;DHT22;11203;50.870;20.682;2022-11-15T14:33:35;8.60;99.90
21762;DHT22;11203;50.870;20.682;2022-11-15T14:38:32;8.60;99.90
21762;DHT22;11203;50.870;20.682;2022-11-15T14:40:58;8.40;99.90
21762;DHT22;11203;50.870;20.682;2022-11-15T14:43:24;8.40;99.90
21762;DHT22;11203;50.870;20.682;2022-11-15T14:45:51;8.40;99.90
21762;DHT22;11203;50.870;20.682;2022-11-15T14:48:17;8.30;99.90
21762;DHT22;11203;50.870;20.682;2022-11-15T14:50:43;8.20;99.90
21762;DHT22;11203;50.870;20.682;2022-11-15T14:53:15;8.10;99.90
21762;DHT22;11203;50.870;20.682;2022-11-15T14:55:43;8.00;99.90
21762;DHT22;11203;50.870;20.682;2022-11-15T14:58:09;8.00;99.90
21762;DHT22;11203;50.870;20.682;2022-11-15T15:00:37;7.90;99.90
21762;DHT22;11203;50.870;20.682;2022-11-15T15:03:05;8.00;99.90
21762;DHT22;11203;50.870;20.682;2022-11-15T15:05:35;7.90;99.90
21762;DHT22;11203;50.870;20.682;2022-11-15T15:08:10;7.80;99.90
21762;DHT22;11203;50.870;20.682;2022-11-15T15:10:40;7.80;99.90
21762;DHT22;11203;50.870;20.682;2022-11-15T15:13:22;7.70;99.90
21762;DHT22;11203;50.870;20.682;2022-11-15T15:15:51;7.60;99.90
21762;DHT22;11203;50.870;20.682;2022-11-15T15:18:18;7.50;99.90
21762;DHT22;11203;50.870;20.682;2022-11-15T15:20:49;7.50;99.90
21762;DHT22;11203;50.870;20.682;2022-11-15T15:23:20;7.50;99.90
21762;DHT22;11203;50.870;20.682;2022-11-15T15:25:47;7.50;99.90
21762;DHT22;11203;50.870;20.682;2022-11-15T15:28:15;7.50;99.90
21762;DHT22;11203;50.870;20.682;2022-11-15T15:30:41;7.40;99.90
21762;DHT22;11203;50.870;20.682;2022-11-15T15:33:07;7.40;99.90
21762;DHT22;11203;50.870;20.682;2022-11-15T15:35:34;7.40;99.90
21762;DHT22;11203;50.870;20.682;2022-11-15T15:38:01;7.30;99.90
21762;DHT22;11203;50.870;20.682;2022-11-15T15:40:30;7.30;99.90
21762;DHT22;11203;50.870;20.682;2022-11-15T15:42:57;7.20;99.90
21762;DHT22;11203;50.870;20.682;2022-11-15T15:45:25;7.10;99.90
21762;DHT22;11203;50.870;20.682;2022-11-15T15:47:52;7.10;99.90
21762;DHT22;11203;50.870;20.682;2022-11-15T15:50:34;7.00;99.90
21762;DHT22;11203;50.870;20.682;2022-11-15T15:53:02;7.10;99.90
21762;DHT22;11203;50.870;20.682;2022-11-15T15:55:29;7.00;99.90
21762;DHT22;11203;50.870;20.682;2022-11-15T15:57:55;7.00;99.90
21762;DHT22;11203;50.870;20.682;2022-11-15T16:00:23;7.00;99.90
21762;DHT22;11203;50.870;20.682;2022-11-15T16:02:50;7.00;99.90
21762;DHT22;11203;50.870;20.682;2022-11-15T16:05:17;6.90;99.90
21762;DHT22;11203;50.870;20.682;2022-11-15T16:07:44;7.00;99.90
21762;DHT22;11203;50.870;20.682;2022-11-15T16:12:47;7.00;99.90
21762;DHT22;11203;50.870;20.682;2022-11-15T16:15:14;6.80;99.90
21762;DHT22;11203;50.870;20.682;2022-11-15T16:17:57;6.80;99.90
21762;DHT22;11203;50.870;20.682;2022-11-15T16:20:42;6.70;99.90
21762;DHT22;11203;50.870;20.682;2022-11-15T16:23:15;6.70;99.90
21762;DHT22;11203;50.870;20.682;2022-11-15T16:25:48;6.50;99.90
21762;DHT22;11203;50.870;20.682;2022-11-15T16:28:18;6.60;99.90
21762;DHT22;11203;50.870;20.682;2022-11-15T16:30:46;6.50;99.90
21762;DHT22;11203;50.870;20.682;2022-11-15T16:33:12;6.50;99.90
21762;DHT22;11203;50.870;20.682;2022-11-15T16:35:39;6.60;99.90
21762;DHT22;11203;50.870;20.682;2022-11-15T16:38:05;6.60;99.90
21762;DHT22;11203;50.870;20.682;2022-11-15T16:40:33;6.50;99.90
21762;DHT22;11203;50.870;20.682;2022-11-15T16:43:00;6.50;99.90
21762;DHT22;11203;50.870;20.682;2022-11-15T16:45:28;6.50;99.90
21762;DHT22;11203;50.870;20.682;2022-11-15T16:47:55;6.40;99.90
21762;DHT22;11203;50.870;20.682;2022-11-15T16:50:24;6.40;99.90
21762;DHT22;11203;50.870;20.682;2022-11-15T16:52:53;6.40;99.90
21762;DHT22;11203;50.870;20.682;2022-11-15T16:55:21;6.60;1.00
21762;DHT22;11203;50.870;20.682;2022-11-15T16:57:49;6.50;1.00
21762;DHT22;11203;50.870;20.682;2022-11-15T17:00:17;6.50;1.00
21762;DHT22;11203;50.870;20.682;2022-11-15T17:02:45;6.50;1.00
21762;DHT22;11203;50.870;20.682;2022-11-15T17:05:14;6.50;1.00
21762;DHT22;11203;50.870;20.682;2022-11-15T17:07:41;6.50;99.90
21762;DHT22;11203;50.870;20.682;2022-11-15T17:10:10;6.60;99.90
21762;DHT22;11203;50.870;20.682;2022-11-15T17:12:37;6.50;1.00
21762;DHT22;11203;50.870;20.682;2022-11-15T17:15:04;6.50;99.90
21762;DHT22;11203;50.870;20.682;2022-11-15T17:17:31;6.50;99.90
21762;DHT22;11203;50.870;20.682;2022-11-15T17:19:57;6.40;1.00
21762;DHT22;11203;50.870;20.682;2022-11-15T17:22:23;6.40;1.00
21762;DHT22;11203;50.870;20.682;2022-11-15T17:24:50;6.50;1.00
21762;DHT22;11203;50.870;20.682;2022-11-15T17:27:16;6.40;1.00
21762;DHT22;11203;50.870;20.682;2022-11-15T17:29:42;6.50;1.00
21762;DHT22;11203;50.870;20.682;2022-11-15T17:32:08;6.50;1.00
21762;DHT22;11203;50.870;20.682;2022-11-15T17:34:34;6.50;99.90
21762;DHT22;11203;50.870;20.682;2022-11-15T17:37:00;6.50;1.00
21762;DHT22;11203;50.870;20.682;2022-11-15T17:39:26;6.40;1.00
21762;DHT22;11203;50.870;20.682;2022-11-15T17:41:52;6.50;1.00
21762;DHT22;11203;50.870;20.682;2022-11-15T17:44:18;6.50;1.00
21762;DHT22;11203;50.870;20.682;2022-11-15T17:46:44;6.50;99.90
21762;DHT22;11203;50.870;20.682;2022-11-15T17:49:10;6.60;95.10
21762;DHT22;11203;50.870;20.682;2022-11-15T17:51:36;6.60;1.00
21762;DHT22;11203;50.870;20.682;2022-11-15T17:54:03;6.50;1.00
21762;DHT22;11203;50.870;20.682;2022-11-15T17:56:29;6.60;1.00
21762;DHT22;11203;50.870;20.682;2022-11-15T17:58:58;6.60;1.00
21762;DHT22;11203;50.870;20.682;2022-11-15T18:01:27;6.50;1.00
21762;DHT22;11203;50.870;20.682;2022-11-15T18:03:59;6.50;1.00
21762;DHT22;11203;50.870;20.682;2022-11-15T18:06:28;6.50;1.00
21762;DHT22;11203;50.870;20.682;2022-11-15T18:08:56;6.60;1.00
21762;DHT22;11203;50.870;20.682;2022-11-15T18:11:30;6.60;1.00